Time;durP1;ratioP1;P1;durP2;ratioP2;P2;SDS_P1;SDS_P2;PMS_P1;PMS_P2;Temp;Humidity;BMP_temperature;BMP_pressure;BME280_temperature;BME280_humidity;BME280_pressure;Samples;Min_cycle;Max_cycle;Signal;HPM_P1;HPM_P2
2024/04/25 00:01:03;;;;;;;;;;;;;;;18.87;68.79;98426.59;5453057;26;20228;-26
2024/04/25 00:03:29;;;;;;;;;;;;;;;18.97;68.20;98428.34;5454018;26;20103;-26
2024/04/25 00:05:54;;;;;;;;;;;;;;;19.07;67.52;98423.59;5453900;26;19936;-26
2024/04/25 00:08:19;;;;;;;;;;;;;;;18.93;66.67;98425.44;5452908;26;19924;-26
2024/04/25 00:10:49;;;;;;;;;;;;;;;18.81;66.23;98419.66;5453475;26;19924;-27
2024/04/25 00:13:14;;;;;;;;;;;;;;;18.85;65.75;98404.50;5454124;26;20329;-27
2024/04/25 00:15:39;;;;;;;;;;;;;;;18.92;64.69;98400.38;5453800;26;19993;-26
2024/04/25 00:18:04;;;;;;;;;;;;;;;18.99;63.96;98399.22;5453661;26;20316;-27
2024/04/25 00:20:30;;;;;;;;;;;;;;;18.69;63.29;98399.28;5453673;26;20359;-25
2024/04/25 00:22:55;;;;;;;;;;;;;;;18.53;62.71;98397.91;5453393;26;19932;-25
2024/04/25 00:25:20;;;;;;;;;;;;;;;18.49;62.62;98407.66;5453063;26;19932;-26
2024/04/25 00:27:45;;;;;;;;;;;;;;;18.60;62.58;98403.75;5453507;26;19924;-26
2024/04/25 00:30:12;;;;;;;;;;;;;;;18.63;61.21;98403.16;5453475;26;20241;-26
2024/04/25 00:32:37;;;;;;;;;;;;;;;18.56;61.20;98408.91;5436818;26;19973;-26
2024/04/25 00:35:02;;;;;;;;;;;;;;;18.79;60.56;98401.06;5448071;26;19924;-26
2024/04/25 00:37:28;;;;;;;;;;;;;;;18.76;59.60;98410.50;5453115;26;19993;-26
2024/04/25 00:39:55;;;;;;;;;;;;;;;18.83;58.91;98410.22;5453230;26;19955;-26
2024/04/25 00:42:21;;;;;;;;;;;;;;;18.52;59.13;98417.81;5429886;26;19995;-26
2024/04/25 00:44:46;;;;;;;;;;;;;;;18.07;60.54;98422.66;5417272;26;19956;-25
2024/04/25 00:47:15;;;;;;;;;;;;;;;18.15;61.47;98422.00;5417295;26;19967;-26
2024/04/25 00:49:41;;;;;;;;;;;;;;;17.97;60.16;98418.97;5417719;26;19931;-26
2024/04/25 00:52:07;;;;;;;;;;;;;;;17.66;60.96;98417.59;5442042;26;19924;-26
2024/04/25 00:54:33;;;;;;;;;;;;;;;17.90;60.67;98415.81;5452960;26;19924;-26
2024/04/25 00:56:59;;;;;;;;;;;;;;;18.27;59.20;98421.63;5452876;26;20357;-25
2024/04/25 00:59:24;;;;;;;;;;;;;;;18.44;58.51;98419.25;5453027;26;20038;-25
2024/04/25 01:01:50;;;;;;;;;;;;;;;18.62;57.22;98422.28;5452222;26;19997;-26
2024/04/25 01:04:16;;;;;;;;;;;;;;;18.32;57.16;98425.06;5453327;26;20286;-25
2024/04/25 01:06:44;;;;;;;;;;;;;;;17.63;58.72;98434.28;5452490;26;19966;-27
2024/04/25 01:09:09;;;;;;;;;;;;;;;17.71;58.29;98436.41;5452834;26;19948;-24
2024/04/25 01:11:34;;;;;;;;;;;;;;;17.91;56.74;98435.44;5453114;26;19924;-25
2024/04/25 01:14:00;;;;;;;;;;;;;;;17.81;56.92;98430.91;5452135;26;19931;-25
2024/04/25 01:16:25;;;;;;;;;;;;;;;18.22;55.25;98429.75;5452470;26;19924;-26
2024/04/25 01:18:50;;;;;;;;;;;;;;;17.55;57.63;98425.75;5452405;26;20321;-25
2024/04/25 01:21:16;;;;;;;;;;;;;;;17.54;57.97;98415.28;5449450;26;19925;-25
2024/04/25 01:23:43;;;;;;;;;;;;;;;17.52;57.56;98404.78;5452395;26;19931;-26
2024/04/25 01:26:09;;;;;;;;;;;;;;;17.53;57.54;98417.16;5452734;26;19924;-26
2024/04/25 01:28:35;;;;;;;;;;;;;;;17.45;57.52;98416.97;5452874;26;19924;-26
2024/04/25 01:31:02;;;;;;;;;;;;;;;16.98;57.97;98425.34;5453194;26;19990;-26
2024/04/25 01:33:28;;;;;;;;;;;;;;;16.96;58.03;98426.66;5452842;26;19924;-26
2024/04/25 01:35:54;;;;;;;;;;;;;;;17.18;57.27;98424.41;5452353;26;19939;-26
2024/04/25 01:38:19;;;;;;;;;;;;;;;17.20;56.91;98424.91;5452639;26;19924;-26
2024/04/25 01:40:44;;;;;;;;;;;;;;;16.83;57.74;98425.41;5452240;26;19924;-26
2024/04/25 01:43:10;;;;;;;;;;;;;;;17.23;56.16;98425.44;5451816;26;19993;-27
2024/04/25 01:45:35;;;;;;;;;;;;;;;16.85;56.94;98431.31;5451725;26;19925;-26
2024/04/25 01:48:00;;;;;;;;;;;;;;;17.44;55.58;98424.22;5451254;26;19931;-27
2024/04/25 01:50:25;;;;;;;;;;;;;;;17.47;55.30;98428.25;5452055;26;20345;-26
2024/04/25 01:52:51;;;;;;;;;;;;;;;17.31;55.45;98424.88;5451453;26;19924;-26
2024/04/25 01:55:16;;;;;;;;;;;;;;;17.26;55.66;98425.69;5451271;26;19924;-26
2024/04/25 01:57:41;;;;;;;;;;;;;;;17.43;55.51;98419.91;5451587;26;20245;-26
2024/04/25 02:00:07;;;;;;;;;;;;;;;17.05;56.19;98416.94;5452047;26;19924;-26
2024/04/25 02:02:32;;;;;;;;;;;;;;;17.33;55.75;98415.44;5451405;26;19989;-26
2024/04/25 02:04:57;;;;;;;;;;;;;;;17.14;55.77;98412.59;5451502;26;20003;-26
2024/04/25 02:07:22;;;;;;;;;;;;;;;17.63;54.94;98412.78;5451620;26;19931;-27
2024/04/25 02:09:48;;;;;;;;;;;;;;;17.87;54.89;98412.88;5451424;26;19924;-27
2024/04/25 02:12:13;;;;;;;;;;;;;;;18.17;53.89;98426.03;5450435;26;19930;-26
2024/04/25 02:14:38;;;;;;;;;;;;;;;17.88;55.05;98417.97;5451344;26;19932;-27
2024/04/25 02:17:03;;;;;;;;;;;;;;;17.98;55.03;98422.44;5451114;26;19924;-26
2024/04/25 02:19:28;;;;;;;;;;;;;;;17.91;55.71;98413.91;5450807;26;19932;-26
2024/04/25 02:27:21;;;;;;;;;;;;;;;18.05;56.53;98392.50;5452051;26;20368;-26
2024/04/25 02:29:47;;;;;;;;;;;;;;;18.10;56.44;98387.84;5444739;26;19932;-25
2024/04/25 02:32:12;;;;;;;;;;;;;;;18.06;56.75;98386.84;5451754;26;19932;-26
2024/04/25 02:34:37;;;;;;;;;;;;;;;18.11;55.95;98383.31;5417740;26;19936;-26
2024/04/25 02:37:02;;;;;;;;;;;;;;;18.05;55.91;98382.56;5415555;26;19925;-26
2024/04/25 02:39:28;;;;;;;;;;;;;;;17.94;56.29;98373.78;5415337;26;19932;-27
2024/04/25 02:41:53;;;;;;;;;;;;;;;18.00;56.59;98377.22;5415098;26;19932;-26
2024/04/25 02:44:18;;;;;;;;;;;;;;;17.98;56.04;98357.84;5415191;26;19932;-26
2024/04/25 02:46:43;;;;;;;;;;;;;;;18.04;56.69;98372.06;5415902;26;19937;-26
2024/04/25 02:49:09;;;;;;;;;;;;;;;18.10;56.62;98362.84;5415592;26;19936;-26
2024/04/25 02:51:34;;;;;;;;;;;;;;;17.98;57.52;98360.56;5414741;26;19953;-26
2024/04/25 02:53:59;;;;;;;;;;;;;;;17.67;57.93;98360.00;5414587;26;19925;-26
2024/04/25 02:56:24;;;;;;;;;;;;;;;17.63;57.92;98359.81;5417441;26;19924;-26
2024/04/25 02:58:50;;;;;;;;;;;;;;;17.49;58.44;98375.75;5423711;26;19957;-26
2024/04/25 03:01:15;;;;;;;;;;;;;;;17.38;59.00;98379.63;5451169;26;19932;-26
2024/04/25 03:03:40;;;;;;;;;;;;;;;17.39;59.15;98383.94;5450359;26;20268;-25
2024/04/25 03:06:05;;;;;;;;;;;;;;;17.45;58.98;98382.00;5451344;26;19925;-25
2024/04/25 03:08:31;;;;;;;;;;;;;;;17.52;59.11;98390.56;5450198;26;19926;-26
2024/04/25 03:11:00;;;;;;;;;;;;;;;17.35;58.93;98388.25;5416868;26;19936;-26
2024/04/25 03:13:26;;;;;;;;;;;;;;;17.45;58.64;98388.19;5414271;26;19937;-26
2024/04/25 03:15:51;;;;;;;;;;;;;;;17.52;58.85;98396.72;5445982;26;19992;-27
2024/04/25 03:18:16;;;;;;;;;;;;;;;17.43;58.72;98395.72;5450403;26;19936;-27
2024/04/25 03:20:41;;;;;;;;;;;;;;;17.37;58.56;98399.53;5450593;26;19932;-27
2024/04/25 03:23:07;;;;;;;;;;;;;;;17.51;72.02;98392.41;5450784;26;19944;-26
2024/04/25 03:25:32;;;;;;;;;;;;;;;17.64;61.66;98403.63;5453295;26;19931;-26
2024/04/25 03:27:58;;;;;;;;;;;;;;;17.67;59.60;98397.66;5453645;26;19925;-26
2024/04/25 03:30:23;;;;;;;;;;;;;;;17.72;59.98;98403.81;5453596;26;19985;-26
2024/04/25 03:32:48;;;;;;;;;;;;;;;17.65;59.28;98407.91;5454512;26;19928;-26
2024/04/25 03:35:13;;;;;;;;;;;;;;;17.53;59.54;98419.03;5453780;26;19924;-26
2024/04/25 03:37:38;;;;;;;;;;;;;;;17.51;59.29;98421.22;5454293;26;19931;-26
2024/04/25 03:40:04;;;;;;;;;;;;;;;17.53;59.67;98419.03;5448955;26;19925;-26
2024/04/25 03:42:29;;;;;;;;;;;;;;;17.63;59.26;98423.53;5453241;26;19931;-26
2024/04/25 03:44:54;;;;;;;;;;;;;;;17.65;59.76;98429.44;5453859;26;19930;-26
2024/04/25 03:47:23;;;;;;;;;;;;;;;17.49;60.56;98423.38;5453828;26;19993;-27
2024/04/25 03:49:48;;;;;;;;;;;;;;;17.43;60.78;98452.19;5453004;26;19932;-27
2024/04/25 03:52:13;;;;;;;;;;;;;;;17.33;59.94;98446.91;5452826;26;19925;-26
2024/04/25 03:54:38;;;;;;;;;;;;;;;17.14;60.40;98452.91;5453223;26;19924;-26
2024/04/25 03:57:04;;;;;;;;;;;;;;;17.43;80.80;98440.63;5453371;26;19932;-26
2024/04/25 03:59:29;;;;;;;;;;;;;;;17.61;64.60;98425.69;5453289;26;19924;-26
2024/04/25 04:01:57;;;;;;;;;;;;;;;17.83;61.61;98425.25;5452904;26;19987;-27
2024/04/25 04:04:22;;;;;;;;;;;;;;;17.70;59.40;98430.19;5451927;26;20230;-27
2024/04/25 04:06:48;;;;;;;;;;;;;;;17.24;59.05;98432.44;5451472;26;19924;-26
2024/04/25 04:09:13;;;;;;;;;;;;;;;17.05;59.63;98432.28;5451393;26;19967;-26
2024/04/25 04:11:40;;;;;;;;;;;;;;;17.32;56.74;98431.84;5450498;26;19925;-28
2024/04/25 04:14:05;;;;;;;;;;;;;;;17.39;57.18;98430.44;5449659;26;19985;-27
2024/04/25 04:16:30;;;;;;;;;;;;;;;17.48;57.48;98427.97;5449491;26;19956;-27
2024/04/25 04:18:56;;;;;;;;;;;;;;;17.42;56.08;98434.47;5452748;26;19924;-26
2024/04/25 04:21:21;;;;;;;;;;;;;;;17.37;65.83;98435.28;5452962;26;19924;-26
2024/04/25 04:23:47;;;;;;;;;;;;;;;17.64;56.23;98425.94;5453127;26;20379;-27
2024/04/25 04:26:13;;;;;;;;;;;;;;;17.50;54.54;98425.00;5454007;26;19924;-26
2024/04/25 04:28:38;;;;;;;;;;;;;;;17.62;53.62;98424.63;5454205;26;19925;-26
2024/04/25 04:31:03;;;;;;;;;;;;;;;17.60;52.70;98424.91;5453651;26;19924;-27
2024/04/25 04:33:29;;;;;;;;;;;;;;;17.51;54.25;98421.22;5453242;26;19962;-27
2024/04/25 04:35:55;;;;;;;;;;;;;;;17.68;53.25;98418.13;5451897;26;20357;-27
2024/04/25 04:38:20;;;;;;;;;;;;;;;17.74;53.16;98422.38;5453390;26;19925;-26
2024/04/25 04:40:45;;;;;;;;;;;;;;;17.72;52.79;98416.47;5453280;26;19928;-27
2024/04/25 04:43:10;;;;;;;;;;;;;;;17.66;51.50;98420.28;5453705;26;19924;-27
2024/04/25 04:45:36;;;;;;;;;;;;;;;17.67;52.04;98429.94;5453034;26;19933;-26
2024/04/25 04:48:01;;;;;;;;;;;;;;;17.64;52.26;98425.16;5452678;26;20356;-27
2024/04/25 04:50:26;;;;;;;;;;;;;;;17.87;51.44;98421.72;5451517;26;19986;-27
2024/04/25 04:52:51;;;;;;;;;;;;;;;17.91;51.00;98420.06;5453673;26;19993;-27
2024/04/25 04:55:17;;;;;;;;;;;;;;;18.08;51.00;98413.47;5453978;26;20317;-27
2024/04/25 04:57:42;;;;;;;;;;;;;;;18.56;72.00;98425.06;5454282;26;19931;-28
2024/04/25 05:00:07;;;;;;;;;;;;;;;19.20;59.14;98434.78;5453543;26;20011;-27
2024/04/25 05:02:33;;;;;;;;;;;;;;;19.57;55.41;98435.81;5453959;26;20415;-28
2024/04/25 05:04:58;;;;;;;;;;;;;;;19.64;51.66;98442.44;5453370;26;19924;-26
2024/04/25 05:07:23;;;;;;;;;;;;;;;19.65;51.25;98449.44;5453645;26;19932;-27
2024/04/25 05:09:48;;;;;;;;;;;;;;;19.68;50.86;98435.34;5453574;26;20316;-28
2024/04/25 05:12:14;;;;;;;;;;;;;;;19.66;49.65;98426.75;5453346;26;20248;-26
2024/04/25 05:14:39;;;;;;;;;;;;;;;19.73;48.96;98445.31;5453187;26;19924;-27
2024/04/25 05:17:05;;;;;;;;;;;;;;;19.75;49.24;98447.72;5453308;26;20014;-27
2024/04/25 05:19:30;;;;;;;;;;;;;;;19.85;49.58;98453.72;5454008;26;19933;-26
2024/04/25 05:21:56;;;;;;;;;;;;;;;19.82;47.93;98457.03;5453725;26;19931;-27
2024/04/25 05:24:21;;;;;;;;;;;;;;;19.80;47.04;98450.31;5453509;26;20350;-26
2024/04/25 05:26:47;;;;;;;;;;;;;;;19.78;46.96;98452.50;5453043;26;19924;-26
2024/04/25 05:29:12;;;;;;;;;;;;;;;19.96;46.51;98458.97;5453839;26;19931;-26
2024/04/25 05:31:38;;;;;;;;;;;;;;;19.89;46.98;98446.63;5453386;26;19925;-26
2024/04/25 05:34:03;;;;;;;;;;;;;;;20.07;47.06;98453.09;5452892;26;19932;-27
2024/04/25 05:36:29;;;;;;;;;;;;;;;20.03;47.31;98440.47;5453008;26;20246;-26
2024/04/25 05:38:54;;;;;;;;;;;;;;;20.14;47.80;98449.19;5453030;26;19929;-26
2024/04/25 05:41:19;;;;;;;;;;;;;;;20.25;47.79;98467.63;5452379;26;19924;-27
2024/04/25 05:43:44;;;;;;;;;;;;;;;20.31;47.45;98469.16;5452963;26;20365;-27
2024/04/25 05:46:10;;;;;;;;;;;;;;;20.58;53.09;98470.25;5453362;26;20238;-40
2024/04/25 05:48:38;;;;;;;;;;;;;;;20.97;47.29;98470.88;5452936;26;20489;-41
2024/04/25 05:51:04;;;;;;;;;;;;;;;20.61;46.14;98466.97;5452658;26;19931;-41
2024/04/25 05:53:29;;;;;;;;;;;;;;;21.00;46.31;98473.75;5452814;26;19924;-38
2024/04/25 05:55:54;;;;;;;;;;;;;;;21.26;44.60;98471.28;5452986;26;19925;-41
2024/04/25 05:58:19;;;;;;;;;;;;;;;21.12;45.58;98473.25;5452941;26;19970;-40
2024/04/25 06:00:45;;;;;;;;;;;;;;;21.76;61.67;98473.16;5451200;26;20330;-39
2024/04/25 06:03:11;;;;;;;;;;;;;;;22.44;46.88;98468.44;5453009;26;19935;-40
2024/04/25 06:05:36;;;;;;;;;;;;;;;22.93;48.88;98462.22;5452741;26;19943;-43
2024/04/25 06:08:01;;;;;;;;;;;;;;;23.41;47.95;98459.41;5452482;26;19924;-38
2024/04/25 06:10:27;;;;;;;;;;;;;;;23.81;46.05;98459.25;5452199;26;19924;-39
2024/04/25 06:12:52;;;;;;;;;;;;;;;24.03;42.74;98457.47;5449177;26;19975;-37
2024/04/25 06:15:17;;;;;;;;;;;;;;;24.17;43.40;98454.53;5449531;26;19932;-38
2024/04/25 06:17:42;;;;;;;;;;;;;;;24.39;42.65;98457.03;5450197;26;20069;-38
2024/04/25 06:20:08;;;;;;;;;;;;;;;24.37;42.82;98455.78;5450210;26;19924;-40
2024/04/25 06:22:34;;;;;;;;;;;;;;;24.55;42.16;98465.44;5451350;26;19925;-38
2024/04/25 06:25:01;;;;;;;;;;;;;;;24.62;41.83;98466.84;5450414;26;20296;-40
2024/04/25 06:27:27;;;;;;;;;;;;;;;24.66;40.25;98460.44;5450794;26;19947;-38
2024/04/25 06:29:52;;;;;;;;;;;;;;;24.90;41.23;98468.00;5450572;26;19924;-37
2024/04/25 06:32:17;;;;;;;;;;;;;;;24.75;40.85;98463.09;5450614;26;20313;-39
2024/04/25 06:34:44;;;;;;;;;;;;;;;25.02;41.25;98456.41;5450160;26;19924;-40
2024/04/25 06:37:10;;;;;;;;;;;;;;;25.34;39.22;98457.66;5449731;26;19966;-39
2024/04/25 06:39:35;;;;;;;;;;;;;;;25.72;38.48;98456.66;5450291;26;19924;-43
2024/04/25 06:42:01;;;;;;;;;;;;;;;25.59;37.69;98468.66;5450209;26;19928;-38
2024/04/25 06:44:26;;;;;;;;;;;;;;;25.58;38.79;98471.69;5449453;26;19931;-36
2024/04/25 06:46:51;;;;;;;;;;;;;;;25.30;38.60;98470.34;5449567;26;19952;-37
2024/04/25 06:49:17;;;;;;;;;;;;;;;25.18;39.16;98470.22;5449449;26;20011;-42
2024/04/25 06:51:42;;;;;;;;;;;;;;;25.11;39.20;98456.31;5449483;26;19924;-41
2024/04/25 06:54:07;;;;;;;;;;;;;;;25.65;38.94;98466.53;5449538;26;19929;-40
2024/04/25 06:56:33;;;;;;;;;;;;;;;25.67;38.40;98459.59;5449572;26;19925;-39
2024/04/25 06:58:58;;;;;;;;;;;;;;;25.78;36.95;98459.16;5450074;26;20433;-39
2024/04/25 07:01:23;;;;;;;;;;;;;;;25.70;36.64;98458.94;5453381;26;20337;-36
2024/04/25 07:03:49;;;;;;;;;;;;;;;25.84;36.48;98461.34;5452718;26;19924;-38
2024/04/25 07:06:14;;;;;;;;;;;;;;;25.15;38.20;98460.78;5453018;26;20334;-40
2024/04/25 07:08:39;;;;;;;;;;;;;;;25.30;38.88;98451.28;5453376;26;19924;-40
2024/04/25 07:11:04;;;;;;;;;;;;;;;25.12;40.09;98460.66;5454498;26;20006;-41
2024/04/25 07:13:30;;;;;;;;;;;;;;;25.26;40.22;98460.41;5454256;26;19958;-42
2024/04/25 07:15:55;;;;;;;;;;;;;;;25.22;41.51;98462.19;5455243;26;19931;-42
2024/04/25 07:18:21;;;;;;;;;;;;;;;25.63;40.33;98455.94;5455560;26;19925;-42
2024/04/25 07:20:46;;;;;;;;;;;;;;;25.96;39.16;98447.00;5455066;26;19924;-39
2024/04/25 07:23:11;;;;;;;;;;;;;;;25.65;39.49;98463.78;5454942;26;19928;-40
2024/04/25 07:25:37;;;;;;;;;;;;;;;26.01;39.36;98470.50;5454546;26;20364;-38
2024/04/25 07:28:03;;;;;;;;;;;;;;;26.05;38.92;98468.72;5455120;26;19931;-41
2024/04/25 07:30:28;;;;;;;;;;;;;;;26.23;37.79;98469.31;5454782;26;19924;-40
2024/04/25 07:32:53;;;;;;;;;;;;;;;25.66;39.85;98474.34;5452387;26;20400;-41
2024/04/25 07:35:18;;;;;;;;;;;;;;;25.61;39.77;98457.41;5452851;26;20372;-40
2024/04/25 07:37:44;;;;;;;;;;;;;;;25.86;39.32;98466.47;5454382;26;19935;-42
2024/04/25 07:40:09;;;;;;;;;;;;;;;24.63;40.51;98457.59;5455383;26;19924;-42
2024/04/25 07:42:34;;;;;;;;;;;;;;;25.56;38.96;98463.84;5452238;26;20393;-40
2024/04/25 07:45:01;;;;;;;;;;;;;;;25.88;38.25;98466.94;5451785;26;19924;-42
2024/04/25 07:47:26;;;;;;;;;;;;;;;25.82;39.01;98462.84;5451569;26;20248;-40
2024/04/25 07:49:52;;;;;;;;;;;;;;;26.06;38.22;98459.41;5452824;26;19924;-38
2024/04/25 07:52:18;;;;;;;;;;;;;;;26.50;37.68;98454.22;5453448;26;19924;-41
2024/04/25 07:54:43;;;;;;;;;;;;;;;27.08;37.09;98448.66;5453773;26;19993;-42
2024/04/25 07:57:08;;;;;;;;;;;;;;;26.97;36.93;98448.31;5454061;26;19924;-43
2024/04/25 07:59:34;;;;;;;;;;;;;;;27.14;36.87;98452.72;5454473;26;20331;-39
2024/04/25 08:01:59;;;;;;;;;;;;;;;27.09;37.48;98456.50;5454615;26;19925;-27
2024/04/25 08:04:24;;;;;;;;;;;;;;;27.44;36.59;98466.09;5454625;26;19939;-27
2024/04/25 08:06:50;;;;;;;;;;;;;;;27.72;34.79;98454.38;5454777;26;19932;-27
2024/04/25 08:09:15;;;;;;;;;;;;;;;28.03;34.62;98442.75;5454617;26;19936;-31
2024/04/25 08:11:40;;;;;;;;;;;;;;;27.61;35.35;98451.34;5454369;26;19924;-27
2024/04/25 08:14:05;;;;;;;;;;;;;;;28.05;34.05;98454.91;5454282;26;19935;-26
2024/04/25 08:16:31;;;;;;;;;;;;;;;28.31;33.90;98452.78;5454798;26;19931;-26
2024/04/25 08:18:57;;;;;;;;;;;;;;;28.56;33.70;98453.44;5454566;26;19924;-29
2024/04/25 08:21:22;;;;;;;;;;;;;;;28.19;33.05;98443.53;5454729;26;19967;-27
2024/04/25 08:23:47;;;;;;;;;;;;;;;28.29;32.71;98439.47;5454439;26;19925;-27
2024/04/25 08:26:13;;;;;;;;;;;;;;;28.11;33.40;98436.31;5453930;26;19924;-27
2024/04/25 08:28:39;;;;;;;;;;;;;;;28.38;32.90;98437.34;5454185;26;19930;-26
2024/04/25 08:31:04;;;;;;;;;;;;;;;28.62;32.45;98428.19;5453710;26;19924;-27
2024/04/25 08:33:30;;;;;;;;;;;;;;;28.74;32.51;98423.75;5452746;26;19952;-28
2024/04/25 08:35:55;;;;;;;;;;;;;;;28.63;32.57;98443.44;5454067;26;19932;-27
2024/04/25 08:38:21;;;;;;;;;;;;;;;28.67;32.79;98435.31;5453988;26;19924;-27
2024/04/25 08:40:50;;;;;;;;;;;;;;;28.58;33.29;98426.53;5454233;26;19952;-27
2024/04/25 08:43:16;;;;;;;;;;;;;;;28.71;33.23;98436.22;5454378;26;19924;-26
2024/04/25 08:45:41;;;;;;;;;;;;;;;28.27;33.42;98437.13;5453675;26;19925;-27
2024/04/25 08:48:11;;;;;;;;;;;;;;;27.76;34.50;98434.22;5453625;26;19932;-28
2024/04/25 08:50:36;;;;;;;;;;;;;;;27.79;34.97;98435.44;5454091;26;19924;-26
2024/04/25 08:53:02;;;;;;;;;;;;;;;27.27;35.16;98426.22;5454378;26;20260;-27
2024/04/25 08:55:27;;;;;;;;;;;;;;;26.96;34.66;98426.81;5453659;26;19924;-27
2024/04/25 08:57:53;;;;;;;;;;;;;;;27.04;35.16;98434.09;5453958;26;19925;-27
2024/04/25 09:00:18;;;;;;;;;;;;;;;27.09;34.65;98439.31;5452512;26;19925;-29
2024/04/25 09:02:46;;;;;;;;;;;;;;;26.83;35.25;98442.44;5453850;26;19936;-29
2024/04/25 09:05:12;;;;;;;;;;;;;;;26.68;35.66;98454.84;5453398;26;19924;-26
2024/04/25 09:07:40;;;;;;;;;;;;;;;26.72;35.04;98453.00;5453882;26;19946;-27
2024/04/25 09:10:05;;;;;;;;;;;;;;;26.05;36.08;98464.06;5452791;26;19935;-27
2024/04/25 09:12:32;;;;;;;;;;;;;;;26.13;35.74;98463.16;5452875;26;20365;-27
2024/04/25 09:14:57;;;;;;;;;;;;;;;25.98;37.08;98458.34;5453579;26;19924;-27
2024/04/25 09:17:23;;;;;;;;;;;;;;;26.12;38.05;98453.41;5454098;26;19965;-27
2024/04/25 09:19:48;;;;;;;;;;;;;;;26.09;38.81;98453.28;5453573;26;19936;-27
2024/04/25 09:22:13;;;;;;;;;;;;;;;26.13;40.17;98441.34;5452396;26;19924;-29
2024/04/25 09:24:38;;;;;;;;;;;;;;;25.88;41.66;98443.19;5451611;26;19931;-26
2024/04/25 09:27:07;;;;;;;;;;;;;;;25.91;42.64;98445.28;5452191;26;19924;-26
2024/04/25 09:29:32;;;;;;;;;;;;;;;25.74;43.91;98448.13;5452421;26;19924;-28
2024/04/25 09:31:57;;;;;;;;;;;;;;;25.69;43.79;98454.59;5452457;26;19965;-27
2024/04/25 09:34:22;;;;;;;;;;;;;;;25.73;42.95;98441.13;5453090;26;19924;-27
2024/04/25 09:36:48;;;;;;;;;;;;;;;25.78;43.21;98429.19;5453484;26;19935;-29
2024/04/25 09:39:13;;;;;;;;;;;;;;;25.74;42.83;98440.78;5453984;26;20317;-30
2024/04/25 09:41:39;;;;;;;;;;;;;;;25.71;43.11;98436.00;5452950;26;19965;-27
2024/04/25 09:44:04;;;;;;;;;;;;;;;25.63;44.46;98431.44;5453713;26;20036;-27
2024/04/25 09:46:38;;;;;;;;;;;;;;;25.64;44.76;98416.66;5452954;26;19993;-29
2024/04/25 09:49:05;;;;;;;;;;;;;;;25.52;43.64;98422.88;5453585;26;19924;-26
2024/04/25 09:51:36;;;;;;;;;;;;;;;25.52;43.46;98422.09;5453238;26;20357;-27
2024/04/25 09:54:14;;;;;;;;;;;;;;;25.43;43.69;98418.66;5452152;26;20265;-27
2024/04/25 09:56:40;;;;;;;;;;;;;;;25.16;42.79;98399.00;5449681;26;19925;-26
2024/04/25 09:59:16;;;;;;;;;;;;;;;25.36;42.98;98430.09;5451129;26;19932;-28
2024/04/25 10:01:42;;;;;;;;;;;;;;;25.38;43.67;98419.66;5451490;26;19948;-41
2024/04/25 10:04:08;;;;;;;;;;;;;;;25.53;43.99;98399.97;5450993;26;19948;-41
2024/04/25 10:06:33;;;;;;;;;;;;;;;25.64;43.95;98399.53;5451250;26;19931;-43
2024/04/25 10:08:58;;;;;;;;;;;;;;;25.81;43.34;98391.19;5451145;26;20452;-40
2024/04/25 10:11:27;;;;;;;;;;;;;;;25.94;41.71;98397.50;5452504;26;19969;-42
2024/04/25 10:13:52;;;;;;;;;;;;;;;26.05;42.10;98387.75;5452780;26;20276;-41
2024/04/25 10:16:20;;;;;;;;;;;;;;;26.03;41.84;98386.50;5452498;26;19925;-41
2024/04/25 10:18:47;;;;;;;;;;;;;;;25.61;41.63;98376.50;5452942;26;19993;-45
2024/04/25 10:21:12;;;;;;;;;;;;;;;25.73;43.30;98381.97;5452943;26;20365;-41
2024/04/25 10:23:37;;;;;;;;;;;;;;;25.67;42.85;98366.97;5452767;26;19932;-42
2024/04/25 10:26:02;;;;;;;;;;;;;;;25.67;43.46;98368.91;5452827;26;20289;-41
2024/04/25 10:28:28;;;;;;;;;;;;;;;25.78;44.39;98367.34;5452596;26;20314;-39
2024/04/25 10:30:54;;;;;;;;;;;;;;;25.86;43.28;98371.13;5451616;26;20429;-40
2024/04/25 10:33:19;;;;;;;;;;;;;;;26.09;43.48;98353.22;5450732;26;19930;-43
2024/04/25 10:35:46;;;;;;;;;;;;;;;26.31;42.80;98346.53;5454945;26;19924;-39
2024/04/25 10:38:18;;;;;;;;;;;;;;;25.98;44.97;98345.84;5455619;26;19931;-41
2024/04/25 10:40:44;;;;;;;;;;;;;;;26.10;43.90;98343.91;5450581;26;19924;-40
2024/04/25 10:43:09;;;;;;;;;;;;;;;25.99;43.38;98336.50;5455313;26;19935;-43
2024/04/25 10:45:36;;;;;;;;;;;;;;;25.90;44.02;98336.59;5455596;26;20422;-41
2024/04/25 10:48:01;;;;;;;;;;;;;;;25.97;43.41;98350.50;5455367;26;19925;-41
2024/04/25 10:50:27;;;;;;;;;;;;;;;25.65;43.81;98355.63;5455485;26;19924;-39
2024/04/25 10:52:52;;;;;;;;;;;;;;;25.81;43.62;98374.06;5455954;26;19994;-42
2024/04/25 10:55:18;;;;;;;;;;;;;;;25.45;44.81;98370.88;5454630;26;19936;-41
2024/04/25 10:57:43;;;;;;;;;;;;;;;25.03;45.67;98378.28;5455496;26;20361;-42
2024/04/25 11:00:09;;;;;;;;;;;;;;;25.04;45.88;98386.13;5454012;26;19924;-45
2024/04/25 11:02:35;;;;;;;;;;;;;;;25.00;46.72;98379.75;5455290;26;19932;-40
2024/04/25 11:05:00;;;;;;;;;;;;;;;24.97;47.36;98383.13;5455091;26;19931;-43
2024/04/25 11:07:26;;;;;;;;;;;;;;;24.89;48.00;98392.16;5455625;26;19925;-26
2024/04/25 11:09:51;;;;;;;;;;;;;;;24.36;49.45;98405.22;5455270;26;19925;-26
2024/04/25 11:12:16;;;;;;;;;;;;;;;23.47;51.50;98396.84;5456147;26;19924;-26
2024/04/25 11:14:41;;;;;;;;;;;;;;;23.32;51.80;98390.78;5454636;26;19966;-44
2024/04/25 11:17:07;;;;;;;;;;;;;;;22.96;54.44;98394.59;5454063;26;19932;-43
2024/04/25 11:19:32;;;;;;;;;;;;;;;22.61;57.49;98405.34;5455512;26;20007;-26
2024/04/25 11:21:58;;;;;;;;;;;;;;;22.87;56.38;98399.19;5455460;26;19924;-27
2024/04/25 11:24:23;;;;;;;;;;;;;;;22.85;56.15;98401.44;5454449;26;20369;-42
2024/04/25 11:26:49;;;;;;;;;;;;;;;23.10;55.43;98399.09;5455215;26;20287;-41
2024/04/25 11:29:15;;;;;;;;;;;;;;;23.28;55.84;98389.03;5454755;26;20013;-42
2024/04/25 11:31:40;;;;;;;;;;;;;;;23.40;55.70;98376.41;5455452;26;19947;-43
2024/04/25 11:34:16;;;;;;;;;;;;;;;23.43;55.23;98373.03;5455166;26;19924;-41
2024/04/25 11:36:42;;;;;;;;;;;;;;;23.49;55.04;98365.53;5454835;26;19925;-43
2024/04/25 11:39:07;;;;;;;;;;;;;;;23.60;55.17;98349.69;5454903;26;19970;-42
2024/04/25 11:41:32;;;;;;;;;;;;;;;23.68;55.17;98356.22;5455293;26;19924;-45
2024/04/25 11:43:57;;;;;;;;;;;;;;;23.71;56.30;98340.09;5455631;26;19936;-41
2024/04/25 11:46:23;;;;;;;;;;;;;;;23.70;57.05;98330.31;5454544;26;20341;-41
2024/04/25 11:48:57;;;;;;;;;;;;;;;23.68;57.42;98331.78;5454734;26;19925;-40
2024/04/25 11:51:22;;;;;;;;;;;;;;;23.50;54.66;98323.69;5454759;26;20253;-41
2024/04/25 11:53:48;;;;;;;;;;;;;;;23.75;53.80;98329.38;5454437;26;19924;-40
2024/04/25 11:56:14;;;;;;;;;;;;;;;23.83;53.70;98330.50;5454219;26;19932;-40
2024/04/25 11:58:39;;;;;;;;;;;;;;;23.93;53.95;98335.56;5452657;26;19924;-40
2024/04/25 12:01:05;;;;;;;;;;;;;;;24.17;51.70;98338.47;5453153;26;19991;-43
2024/04/25 12:03:30;;;;;;;;;;;;;;;24.64;51.73;98337.59;5454336;26;19924;-42
2024/04/25 12:05:55;;;;;;;;;;;;;;;24.65;53.10;98324.78;5454918;26;19936;-41
2024/04/25 12:08:20;;;;;;;;;;;;;;;24.67;51.26;98315.16;5454375;26;19924;-43
2024/04/25 12:10:50;;;;;;;;;;;;;;;24.02;54.64;98308.34;5452595;26;19932;-40
2024/04/25 12:13:15;;;;;;;;;;;;;;;22.83;54.44;98308.75;5455173;26;19924;-43
2024/04/25 12:15:40;;;;;;;;;;;;;;;23.52;52.76;98297.03;5454223;26;19992;-43
2024/04/25 12:18:06;;;;;;;;;;;;;;;23.74;51.27;98295.19;5454981;26;20296;-45
2024/04/25 12:20:31;;;;;;;;;;;;;;;22.84;54.62;98281.28;5453004;26;19932;-42
2024/04/25 12:22:56;;;;;;;;;;;;;;;23.54;53.14;98278.50;5454501;26;19933;-43
2024/04/25 12:25:22;;;;;;;;;;;;;;;23.62;50.36;98279.56;5454478;26;19996;-42
2024/04/25 12:27:48;;;;;;;;;;;;;;;24.70;49.01;98300.91;5454631;26;20353;-41
2024/04/25 12:30:13;;;;;;;;;;;;;;;25.62;48.78;98290.94;5454959;26;19924;-44
2024/04/25 12:32:38;;;;;;;;;;;;;;;25.99;49.31;98292.91;5463906;26;19928;-42
2024/04/25 12:35:04;;;;;;;;;;;;;;;25.16;44.11;98298.28;5464088;26;20356;-43
2024/04/25 12:37:29;;;;;;;;;;;;;;;25.49;46.12;98298.31;5454423;26;19924;-42
2024/04/25 12:39:54;;;;;;;;;;;;;;;26.12;44.28;98295.31;5454464;26;19925;-40
2024/04/25 12:42:22;;;;;;;;;;;;;;;25.92;44.75;98291.56;5453833;26;20344;-43
2024/04/25 12:44:49;;;;;;;;;;;;;;;26.22;42.73;98288.59;5453799;26;19924;-39